Cedar Valley, Iowa
Current Conditions -  °F | °C
As of 11:52 AM on Friday 31 Oct 2014 (Local Time) from KIOW Reporting Station
Clear Clear  
Wind Chill: 30°   Ceiling: Unl
Heat Index: 39°   Visibility: 10mi
Dew Point: 22°   Wind: 17mph
Humidity: 50%   Direction: 360°N
Pressure: 30.43"   Gusts: 26mph
Location:  41.6714°N, 91.2723°W
Report Text: KIOW 311652Z AUTO 36015G23KT 10SM CLR 04/M06 A3043 RMK AO2 SLP308 T00391056
Loading
Personal Weather Stations






























Interactive Weather Map
Tropical Storm Tracking
New forecast layout! Learn more

10-Day Weather Forecast

Advertisements
Track Severe Weather on mobile